Terminal Aerodrome Forecast
Issued by NWS

Home | Current Version | Previous Version | Text Only | Print | Product List | Glossary On
Versions: 1 2 3 4 5 6 7 8 9 10 11 12 13 14 15 16
392
FTUS41 KBTV 261513 AAB
TAFSLK
TAF AMD
KSLK 261513Z 2615/2712 29008G16KT P6SM SCT025 BKN035
     FM270200 VRB03KT P6SM SKC
     FM270800 00000KT 1SM BR BKN005=

USA.gov is the U.S. government's official web portal to all federal, state and local government web resources and services.